createdAt,value
2022-11-29T00:00:28.959Z,9.31
2022-11-29T00:05:38.041Z,9.25
2022-11-29T00:10:47.831Z,9.31
2022-11-29T00:15:56.281Z,9.25
2022-11-29T00:21:06.038Z,9.19
2022-11-29T00:26:15.797Z,9.12
2022-11-29T00:31:25.557Z,9.06
2022-11-29T00:36:34.072Z,9.06
2022-11-29T00:41:42.520Z,9.12
2022-11-29T00:46:54.843Z,9.12
2022-11-29T00:52:04.608Z,9.12
2022-11-29T00:57:14.357Z,9.31
2022-11-29T01:03:04.444Z,9.38
2022-11-29T01:08:13.564Z,9.25
2022-11-29T01:13:22.039Z,9.31
2022-11-29T01:18:31.159Z,9.31
2022-11-29T01:23:40.950Z,9.31
2022-11-29T01:28:50.745Z,9.25
2022-11-29T01:34:00.470Z,9.25
2022-11-29T01:39:08.279Z,9.44
2022-11-29T01:44:17.396Z,9.44
2022-11-29T01:49:27.880Z,9.5
2022-11-29T01:54:45.551Z,9.5
2022-11-29T02:00:02.755Z,9.56
2022-11-29T02:05:19.725Z,9.56
2022-11-29T02:10:37.154Z,9.44
2022-11-29T02:15:53.515Z,9.44
2022-11-29T02:20:21.876Z,9.5
2022-11-29T02:25:30.998Z,9.5
2022-11-29T02:30:40.830Z,9.25
2022-11-29T02:35:50.518Z,9.19
2022-11-29T02:41:00.920Z,9.19
2022-11-29T02:46:11.374Z,9.12
2022-11-29T02:51:20.442Z,9.19
2022-11-29T02:56:30.196Z,9.19
2022-11-29T03:01:40.028Z,9.12
2022-11-29T03:06:50.362Z,9.06
2022-11-29T03:11:58.842Z,9.06
2022-11-29T03:17:09.244Z,8.94
2022-11-29T03:22:18.996Z,8.69
2022-11-29T03:27:31.418Z,8.69
2022-11-29T03:32:47.576Z,8.81
2022-11-29T03:38:03.141Z,8.88
2022-11-29T03:43:17.346Z,8.69
2022-11-29T03:48:34.165Z,8.38
2022-11-29T03:53:49.668Z,8.31
2022-11-29T03:59:04.549Z,8.25
2022-11-29T04:03:31.962Z,8.31
2022-11-29T04:08:41.109Z,8.44
2022-11-29T04:13:50.840Z,8.62
2022-11-29T04:19:00.598Z,8.56
2022-11-29T04:24:09.079Z,8.31
2022-11-29T04:29:18.841Z,8.25
2022-11-29T04:34:28.607Z,8.31
2022-11-29T04:39:37.080Z,8.38
2022-11-29T04:44:47.591Z,8.19
2022-11-29T04:49:57.238Z,8.25
2022-11-29T04:55:06.999Z,8.25
2022-11-29T05:00:16.761Z,8.31
2022-11-29T05:05:26.519Z,8.25
2022-11-29T05:10:35.640Z,8.31
2022-11-29T05:15:44.246Z,8.19
2022-11-29T05:20:53.221Z,8.12
2022-11-29T05:26:02.360Z,8.31
2022-11-29T05:31:12.172Z,8.44
2022-11-29T05:36:20.600Z,8.31
2022-11-29T05:41:30.996Z,8.31
2022-11-29T05:46:39.552Z,8.38
2022-11-29T05:51:47.989Z,8.31
2022-11-29T05:56:56.439Z,8.38
2022-11-29T06:02:05.617Z,8.44
2022-11-29T06:07:16.008Z,8.38
2022-11-29T06:12:25.720Z,8.19
2022-11-29T06:17:39.332Z,8.12
2022-11-29T06:22:45.494Z,8
2022-11-29T06:28:00.420Z,8.19
2022-11-29T06:38:30.793Z,8.56
2022-11-29T06:43:45.666Z,8.56
2022-11-29T06:49:02.204Z,8.69
2022-11-29T06:54:15.433Z,8.75
2022-11-29T06:59:30.946Z,8.69
2022-11-29T07:03:57.558Z,8.69
2022-11-29T07:09:07.318Z,8.69
2022-11-29T07:14:16.437Z,8.62
2022-11-29T07:19:25.559Z,8.69
2022-11-29T07:24:34.039Z,8.75
2022-11-29T07:29:42.517Z,8.75
2022-11-29T07:34:51.000Z,8.75
2022-11-29T07:40:00.763Z,8.62
2022-11-29T07:45:13.176Z,8.69
2022-11-29T07:50:29.348Z,8.75
2022-11-29T07:55:45.545Z,8.75
2022-11-29T08:01:01.687Z,8.69
2022-11-29T08:06:17.203Z,8.62
2022-11-29T08:11:34.628Z,8.75
2022-11-29T08:16:06.015Z,8.75
2022-11-29T08:21:14.410Z,8.81
2022-11-29T08:26:31.157Z,8.81
2022-11-29T08:31:33.278Z,8.69
2022-11-29T08:36:42.360Z,8.88
2022-11-29T08:41:52.762Z,8.88
2022-11-29T08:47:01.881Z,8.94
2022-11-29T08:52:12.280Z,9.06
2022-11-29T08:57:40.660Z,9
2022-11-29T09:02:31.845Z,9.12
2022-11-29T09:07:42.320Z,9.12
2022-11-29T09:12:52.610Z,9.25
2022-11-29T09:18:01.082Z,9.31
2022-11-29T09:23:10.231Z,9.19
2022-11-29T09:28:20.612Z,9.12
2022-11-29T09:33:30.363Z,9.31
2022-11-29T09:38:39.482Z,9
2022-11-29T09:43:49.273Z,9.25
2022-11-29T09:48:59.644Z,9.25
2022-11-29T09:54:08.791Z,9.38
2022-11-29T09:59:23.886Z,9.38
2022-11-29T10:04:42.085Z,9.25
2022-11-29T10:09:58.924Z,9.56
2022-11-29T10:15:14.931Z,9.62
2022-11-29T10:20:35.356Z,9.56
2022-11-29T10:25:50.006Z,9.62
2022-11-29T10:30:14.555Z,9.62
2022-11-29T10:35:23.652Z,9.31
2022-11-29T10:40:32.118Z,9.69
2022-11-29T10:45:42.047Z,9.75
2022-11-29T10:50:51.643Z,9.75
2022-11-29T10:56:00.790Z,9.75
2022-11-29T11:01:09.984Z,9.94
2022-11-29T11:06:19.001Z,9.81
2022-11-29T11:11:28.117Z,9.44
2022-11-29T11:16:37.945Z,9.56
2022-11-29T11:21:46.358Z,9.88
2022-11-29T11:26:54.845Z,10.12
2022-11-29T11:32:03.368Z,9.88
2022-11-29T11:37:13.088Z,9.75
2022-11-29T11:42:22.202Z,9.81
2022-11-29T11:47:31.346Z,9.62
2022-11-29T11:52:43.811Z,9.81
2022-11-29T11:57:48.293Z,9.94
2022-11-29T12:02:56.889Z,9.75
2022-11-29T12:13:17.956Z,9.75
2022-11-29T12:18:34.735Z,9.5
2022-11-29T12:26:58.188Z,9.44
2022-11-29T12:27:46.475Z,9.44
2022-11-29T12:31:46.698Z,9.62
2022-11-29T12:32:36.720Z,9.62
2022-11-29T12:37:04.133Z,9.69
2022-11-29T12:37:54.155Z,9.69
2022-11-29T12:42:19.003Z,9.75
2022-11-29T12:48:41.582Z,10
2022-11-29T12:56:09.084Z,9.94
2022-11-29T12:56:22.198Z,9.94
2022-11-29T13:01:26.616Z,9.62
2022-11-29T13:01:41.648Z,9.62
2022-11-29T13:06:42.683Z,9.56
2022-11-29T13:06:59.322Z,9.56
2022-11-29T13:12:03.341Z,9.31
2022-11-29T13:12:16.600Z,9.31
2022-11-29T13:17:21.402Z,9.5
2022-11-29T13:18:01.564Z,9.5
2022-11-29T13:22:36.282Z,9.5
2022-11-29T13:23:01.561Z,9.5
2022-11-29T13:27:51.802Z,9.75
2022-11-29T13:28:05.852Z,9.75
2022-11-29T13:33:07.973Z,9.81
2022-11-29T13:33:24.277Z,9.81
2022-11-29T13:38:24.164Z,9.69
2022-11-29T13:39:53.150Z,9.69
2022-11-29T13:44:51.967Z,9.62
2022-11-29T13:45:40.730Z,9.62
2022-11-29T13:50:49.726Z,9.31
2022-11-29T14:15:39.051Z,9.56
2022-11-29T14:15:56.642Z,9.56
2022-11-29T14:21:05.391Z,9.56
2022-11-29T14:21:11.665Z,9.56
2022-11-29T14:26:28.225Z,9.62
2022-11-29T14:26:29.905Z,9.62
2022-11-29T14:31:37.164Z,9.31
2022-11-29T14:31:43.834Z,9.31
2022-11-29T14:36:51.964Z,9.31
2022-11-29T14:36:58.471Z,9.31
2022-11-29T14:42:08.122Z,9.56
2022-11-29T14:42:17.708Z,9.56
2022-11-29T14:47:26.826Z,9.44
2022-11-29T14:51:52.374Z,9.44
2022-11-29T14:57:09.703Z,9.31
2022-11-29T15:02:25.690Z,9.25
2022-11-29T15:13:01.339Z,9.5
2022-11-29T15:13:51.324Z,9.5
2022-11-29T15:23:36.683Z,9.69
2022-11-29T15:24:28.634Z,9.69
2022-11-29T15:34:15.853Z,9.81
2022-11-29T15:35:01.163Z,9.81
2022-11-29T15:44:47.719Z,9.5
2022-11-29T15:45:37.423Z,9.5
2022-11-29T15:55:23.410Z,9.25
2022-11-29T15:56:13.411Z,9.25
2022-11-29T16:05:58.968Z,9.06
2022-11-29T16:12:10.696Z,9.06
2022-11-29T16:17:20.765Z,9.31
2022-11-29T16:17:29.105Z,9.31
2022-11-29T16:22:38.197Z,9.12
2022-11-29T16:22:44.825Z,9.12
2022-11-29T16:27:54.371Z,9.06
2022-11-29T16:28:11.326Z,9.06
2022-11-29T16:33:15.038Z,9.25
2022-11-29T16:34:09.465Z,9.25
2022-11-29T16:39:00.602Z,9.19
2022-11-29T16:42:55.768Z,9.19
2022-11-29T16:48:13.908Z,9.38
2022-11-29T16:53:32.214Z,9.31
2022-11-29T17:04:05.569Z,9.12
2022-11-29T17:09:21.023Z,9.06
2022-11-29T17:14:37.184Z,9.12
2022-11-29T17:19:52.724Z,9.19
2022-11-29T17:25:08.890Z,9.25
2022-11-29T17:30:25.029Z,9.12
2022-11-29T17:31:15.519Z,9.12
2022-11-29T17:36:24.440Z,9.19
2022-11-29T17:36:37.646Z,9.19
2022-11-29T17:41:41.278Z,9.19
2022-11-29T18:07:11.107Z,9.19
2022-11-29T18:22:59.154Z,9.25
2022-11-29T18:28:13.220Z,9.19
2022-11-29T18:29:24.622Z,9.19
2022-11-29T18:34:24.762Z,9
2022-11-29T18:35:12.528Z,9
2022-11-29T18:40:18.710Z,9.12
2022-11-29T18:49:15.907Z,8.94
2022-11-29T18:54:32.060Z,9
2022-11-29T18:59:46.973Z,8.94
2022-11-29T19:05:02.570Z,8.94
2022-11-29T19:13:02.995Z,8.94
2022-11-29T19:18:11.321Z,8.88
2022-11-29T19:18:17.423Z,8.88
2022-11-29T19:23:26.844Z,8.88
2022-11-29T19:25:06.865Z,8.88
2022-11-29T19:29:40.196Z,8.81
2022-11-29T19:30:30.167Z,8.81
2022-11-29T19:34:54.332Z,8.94
2022-11-29T19:43:34.521Z,8.88
2022-11-29T19:43:52.781Z,8.88
2022-11-29T19:49:02.842Z,8.94
2022-11-29T19:49:09.768Z,8.94
2022-11-29T19:54:19.626Z,9.12
2022-11-29T19:54:31.566Z,9.12
2022-11-29T19:59:36.440Z,9.06
2022-11-29T19:59:46.776Z,9.06
2022-11-29T20:04:55.160Z,9
2022-11-29T20:08:19.889Z,9
2022-11-29T20:13:22.941Z,8.75
2022-11-29T20:18:38.107Z,8.81
2022-11-29T20:19:28.107Z,8.81
2022-11-29T20:23:53.984Z,8.75
2022-11-29T20:24:45.687Z,8.75
2022-11-29T20:29:16.282Z,8.88
2022-11-29T20:32:47.579Z,8.88
2022-11-29T20:37:59.261Z,8.81
2022-11-29T20:45:10.529Z,8.88
2022-11-29T20:45:44.148Z,8.88
2022-11-29T20:50:26.041Z,8.88
2022-11-29T20:51:41.415Z,8.88
2022-11-29T20:56:51.319Z,8.94
2022-11-29T20:56:59.732Z,8.94
2022-11-29T21:02:09.400Z,8.88
2022-11-29T21:02:15.583Z,8.88
2022-11-29T21:07:25.650Z,8.44
2022-11-29T21:07:32.636Z,8.44
2022-11-29T21:12:42.358Z,8.62
2022-11-29T21:12:48.859Z,8.62
2022-11-29T21:17:57.884Z,8.69
2022-11-29T21:18:04.134Z,8.69
2022-11-29T21:23:14.051Z,8.5
2022-11-29T21:23:20.299Z,8.5
2022-11-29T21:28:29.566Z,8.31
2022-11-29T21:28:35.860Z,8.31
2022-11-29T21:33:45.721Z,8.31
2022-11-29T21:33:51.813Z,8.31
2022-11-29T21:39:05.521Z,8.5
2022-11-29T21:45:14.790Z,8.5
2022-11-29T21:45:59.329Z,8.5
2022-11-29T21:50:43.319Z,8.62
2022-11-29T21:51:33.330Z,8.62
2022-11-29T21:55:58.876Z,8.69
2022-11-29T21:56:48.899Z,8.69
2022-11-29T22:01:14.483Z,8.44
2022-11-29T22:02:04.499Z,8.44
2022-11-29T22:06:32.440Z,8.44
2022-11-29T22:08:12.462Z,8.44
2022-11-29T22:11:48.607Z,8.56
2022-11-29T22:13:28.630Z,8.56
2022-11-29T22:17:07.318Z,8.56
2022-11-29T22:18:44.156Z,8.56
2022-11-29T22:22:22.205Z,8.5
2022-11-29T22:23:59.680Z,8.5
2022-11-29T22:27:40.283Z,8.56
2022-11-29T22:29:15.182Z,8.56
2022-11-29T22:32:56.437Z,8.44
2022-11-29T22:34:31.339Z,8.44
2022-11-29T22:38:12.596Z,8.44
2022-11-29T22:39:46.229Z,8.44
2022-11-29T22:44:12.387Z,8.44
2022-11-29T22:45:02.382Z,8.44
2022-11-29T22:49:28.911Z,8.38
2022-11-29T22:50:18.909Z,8.38
2022-11-29T22:54:44.333Z,8.38
2022-11-29T22:55:34.066Z,8.38
2022-11-29T22:59:59.584Z,8.5
2022-11-29T23:00:49.647Z,8.5
2022-11-29T23:05:14.495Z,8.5
2022-11-29T23:06:04.506Z,8.5
2022-11-29T23:10:29.348Z,8.44
2022-11-29T23:11:19.339Z,8.44
2022-11-29T23:15:46.751Z,8.62
2022-11-29T23:16:36.917Z,8.62
2022-11-29T23:21:01.688Z,8.75
2022-11-29T23:21:51.693Z,8.75
2022-11-29T23:26:16.547Z,8.62
2022-11-29T23:27:06.540Z,8.62
2022-11-29T23:31:32.169Z,8.69
2022-11-29T23:32:22.101Z,8.69
2022-11-29T23:36:49.765Z,8.56
2022-11-29T23:37:36.946Z,8.56
2022-11-29T23:42:03.747Z,8.69
2022-11-29T23:42:53.744Z,8.69
2022-11-29T23:47:19.301Z,8.56
2022-11-29T23:48:09.301Z,8.56
2022-11-29T23:52:34.787Z,8.69
2022-11-29T23:53:24.774Z,8.69
2022-11-29T23:57:49.664Z,8.62
2022-11-29T23:58:39.663Z,8.62
